createdAt,value
2022-10-22T00:02:10.347Z,13.80
2022-10-22T00:04:59.939Z,13.80
2022-10-22T00:07:48.222Z,13.80
2022-10-22T00:10:38.122Z,13.70
2022-10-22T00:13:26.962Z,13.60
2022-10-22T00:16:15.770Z,13.60
2022-10-22T00:19:04.632Z,13.60
2022-10-22T00:21:54.582Z,13.60
2022-10-22T00:24:43.276Z,13.60
2022-10-22T00:27:31.553Z,13.60
2022-10-22T00:30:20.072Z,13.50
2022-10-22T00:33:08.453Z,13.50
2022-10-22T00:35:56.977Z,13.50
2022-10-22T00:38:46.557Z,13.40
2022-10-22T00:41:34.872Z,13.60
2022-10-22T00:45:00.484Z,13.60
2022-10-22T00:47:54.828Z,13.60
2022-10-22T00:50:46.936Z,13.60
2022-10-22T00:53:38.869Z,13.60
2022-10-22T00:56:28.541Z,13.60
2022-10-22T00:59:17.996Z,13.70
2022-10-22T01:02:06.445Z,13.70
2022-10-22T01:04:54.794Z,13.70
2022-10-22T01:07:47.927Z,13.80
2022-10-22T01:10:46.533Z,13.80
2022-10-22T01:13:43.973Z,13.80
2022-10-22T01:16:38.537Z,13.80
2022-10-22T01:19:45.472Z,13.80
2022-10-22T01:22:37.429Z,13.80
2022-10-22T01:25:35.232Z,13.70
2022-10-22T01:28:33.233Z,13.80
2022-10-22T01:31:24.672Z,13.80
2022-10-22T01:34:16.585Z,13.90
2022-10-22T01:37:05.316Z,13.90
2022-10-22T01:39:55.042Z,13.90
2022-10-22T01:42:43.380Z,13.90
2022-10-22T01:45:35.743Z,13.90
2022-10-22T01:48:37.005Z,13.90
2022-10-22T01:51:50.960Z,13.90
2022-10-22T01:54:46.272Z,13.80
2022-10-22T01:57:43.770Z,13.80
2022-10-22T02:00:32.605Z,13.80
2022-10-22T02:03:26.225Z,13.90
2022-10-22T02:06:19.858Z,13.80
2022-10-22T02:09:10.275Z,13.80
2022-10-22T02:12:00.742Z,13.80
2022-10-22T02:14:51.356Z,13.80
2022-10-22T02:17:40.834Z,13.80
2022-10-22T02:20:31.003Z,13.80
2022-10-22T02:23:22.010Z,13.80
2022-10-22T02:26:16.511Z,13.80
2022-10-22T02:29:12.438Z,13.80
2022-10-22T02:32:02.487Z,13.80
2022-10-22T02:34:52.063Z,13.80
2022-10-22T02:37:41.479Z,13.80
2022-10-22T02:40:32.272Z,13.80
2022-10-22T02:43:20.919Z,13.80
2022-10-22T02:46:09.565Z,13.80
2022-10-22T02:48:57.872Z,13.80
2022-10-22T02:51:46.149Z,13.70
2022-10-22T02:54:34.588Z,13.80
2022-10-22T02:57:24.254Z,13.90
2022-10-22T03:00:13.664Z,13.90
2022-10-22T03:03:01.941Z,13.90
2022-10-22T03:05:51.798Z,14.00
2022-10-22T03:08:40.159Z,14.00
2022-10-22T03:11:28.497Z,14.00
2022-10-22T03:14:18.167Z,14.00
2022-10-22T03:17:06.450Z,14.00
2022-10-22T03:19:54.752Z,14.10
2022-10-22T03:22:44.722Z,14.00
2022-10-22T03:25:34.651Z,14.00
2022-10-22T03:28:23.038Z,14.00
2022-10-22T03:31:14.106Z,14.00
2022-10-22T03:34:02.399Z,14.00
2022-10-22T03:36:52.072Z,14.00
2022-10-22T03:39:40.752Z,14.00
2022-10-22T03:42:29.495Z,14.00
2022-10-22T03:45:17.876Z,14.00
2022-10-22T03:48:07.914Z,14.00
2022-10-22T03:50:56.199Z,14.00
2022-10-22T03:53:44.468Z,14.00
2022-10-22T03:56:32.862Z,14.10
2022-10-22T03:59:21.114Z,14.00
2022-10-22T04:02:10.049Z,14.10
2022-10-22T04:04:59.710Z,14.10
2022-10-22T04:07:48.012Z,14.10
2022-10-22T04:10:36.289Z,14.10
2022-10-22T04:13:24.705Z,14.00
2022-10-22T04:16:15.054Z,14.10
2022-10-22T04:19:03.965Z,14.00
2022-10-22T04:21:53.655Z,14.00
2022-10-22T04:24:42.029Z,14.00
2022-10-22T04:27:32.137Z,14.10
2022-10-22T04:30:20.410Z,14.10
2022-10-22T04:33:08.705Z,14.10
2022-10-22T04:35:56.964Z,14.10
2022-10-22T04:38:48.391Z,14.10
2022-10-22T04:41:39.011Z,14.10
2022-10-22T04:44:27.348Z,14.10
2022-10-22T04:47:15.649Z,14.10
2022-10-22T04:50:04.061Z,14.00
2022-10-22T04:52:52.387Z,14.00
2022-10-22T04:55:42.091Z,14.00
2022-10-22T04:58:30.437Z,14.10
2022-10-22T05:01:21.216Z,14.10
2022-10-22T05:04:12.478Z,14.20
2022-10-22T05:07:00.729Z,14.10
2022-10-22T05:09:49.065Z,14.10
2022-10-22T05:12:38.687Z,14.20
2022-10-22T05:15:27.011Z,14.20
2022-10-22T05:18:17.867Z,14.20
2022-10-22T05:21:11.058Z,14.20
2022-10-22T05:24:00.654Z,14.20
2022-10-22T05:26:50.637Z,14.30
2022-10-22T05:29:40.332Z,14.20
2022-10-22T05:32:28.665Z,14.30
2022-10-22T05:35:17.044Z,14.30
2022-10-22T05:38:05.351Z,14.30
2022-10-22T05:41:03.025Z,14.40
2022-10-22T05:43:51.543Z,14.40
2022-10-22T05:46:43.194Z,14.40
2022-10-22T05:49:31.513Z,14.40
2022-10-22T05:52:19.847Z,14.50
2022-10-22T05:55:08.844Z,14.40
2022-10-22T05:57:57.219Z,14.40
2022-10-22T06:00:45.522Z,14.40
2022-10-22T06:03:35.303Z,14.40
2022-10-22T06:06:28.964Z,14.40
2022-10-22T06:09:21.564Z,14.30
2022-10-22T06:12:12.284Z,14.20
2022-10-22T06:15:00.576Z,14.30
2022-10-22T06:17:49.407Z,14.20
2022-10-22T06:20:39.237Z,14.10
2022-10-22T06:23:27.495Z,14.10
2022-10-22T06:26:17.817Z,14.00
2022-10-22T06:29:07.299Z,14.00
2022-10-22T06:31:55.581Z,14.00
2022-10-22T06:34:43.977Z,14.00
2022-10-22T06:37:33.616Z,14.10
2022-10-22T06:40:22.384Z,14.20
2022-10-22T06:43:11.018Z,14.20
2022-10-22T06:46:02.675Z,14.20
2022-10-22T06:48:51.923Z,14.30
2022-10-22T06:51:40.447Z,14.30
2022-10-22T06:54:30.069Z,14.30
2022-10-22T06:57:18.417Z,14.40
2022-10-22T07:00:08.478Z,14.40
2022-10-22T07:02:59.141Z,14.40
2022-10-22T07:05:48.192Z,14.30
2022-10-22T07:08:37.112Z,14.30
2022-10-22T07:11:28.826Z,14.30
2022-10-22T07:14:17.118Z,14.30
2022-10-22T07:17:05.430Z,14.20
2022-10-22T07:19:53.722Z,14.20
2022-10-22T07:22:42.403Z,14.20
2022-10-22T07:25:30.897Z,14.30
2022-10-22T07:28:21.063Z,14.30
2022-10-22T07:31:10.871Z,14.30
2022-10-22T07:33:59.285Z,14.40
2022-10-22T07:36:47.549Z,14.40
2022-10-22T07:39:35.983Z,14.40
2022-10-22T07:42:24.387Z,14.40
2022-10-22T07:45:14.126Z,14.40
2022-10-22T07:48:02.541Z,14.50
2022-10-22T07:50:51.548Z,14.50
2022-10-22T07:53:40.152Z,14.60
2022-10-22T07:56:28.454Z,14.70
2022-10-22T07:59:16.842Z,14.70
2022-10-22T08:02:06.555Z,14.80
2022-10-22T08:04:57.032Z,14.90
2022-10-22T08:07:45.302Z,14.90
2022-10-22T08:10:33.995Z,14.90
2022-10-22T08:13:23.402Z,14.90
2022-10-22T08:16:11.708Z,15.00
2022-10-22T08:19:01.424Z,15.10
2022-10-22T08:21:50.061Z,15.10
2022-10-22T08:24:38.341Z,15.20
2022-10-22T08:27:26.651Z,15.20
2022-10-22T08:30:15.523Z,15.30
2022-10-22T08:33:03.786Z,15.30
2022-10-22T08:35:53.756Z,15.30
2022-10-22T08:38:42.053Z,15.40
2022-10-22T08:41:30.396Z,15.40
2022-10-22T08:44:45.458Z,15.40
2022-10-22T08:47:59.224Z,15.40
2022-10-22T08:50:49.601Z,15.40
2022-10-22T08:53:46.535Z,15.40
2022-10-22T08:56:38.475Z,15.40
2022-10-22T08:59:34.903Z,15.50
2022-10-22T09:02:34.084Z,15.50
2022-10-22T09:05:34.347Z,15.60
2022-10-22T09:08:23.914Z,15.70
2022-10-22T09:11:24.041Z,15.80
2022-10-22T09:17:14.492Z,16.20
2022-10-22T09:20:10.793Z,16.30
2022-10-22T09:23:12.915Z,16.50
2022-10-22T09:26:02.189Z,16.60
2022-10-22T09:28:54.066Z,16.70
2022-10-22T09:31:42.360Z,16.80
2022-10-22T09:34:31.485Z,16.90
2022-10-22T09:37:24.218Z,17.00
2022-10-22T09:40:16.359Z,17.00
2022-10-22T09:43:04.844Z,17.10
2022-10-22T09:45:59.733Z,17.20
2022-10-22T09:48:51.432Z,17.20
2022-10-22T09:51:49.149Z,17.30
2022-10-22T09:54:42.521Z,17.40
2022-10-22T09:57:31.613Z,17.50
2022-10-22T10:00:20.814Z,17.60
2022-10-22T10:03:18.418Z,17.80
2022-10-22T10:06:07.334Z,18.00
2022-10-22T10:08:57.272Z,18.00
2022-10-22T10:11:49.951Z,18.10
2022-10-22T10:14:46.237Z,18.10
2022-10-22T10:17:41.197Z,18.20
2022-10-22T10:20:39.112Z,18.30
2022-10-22T10:23:36.132Z,18.30
2022-10-22T10:26:32.696Z,18.50
2022-10-22T10:29:33.848Z,18.60
2022-10-22T10:32:31.932Z,18.70
2022-10-22T10:35:25.184Z,18.70
2022-10-22T10:38:29.766Z,18.80
2022-10-22T10:41:25.605Z,18.80
2022-10-22T10:44:31.639Z,18.90
2022-10-22T10:47:34.621Z,19.00
2022-10-22T10:50:30.172Z,19.20
2022-10-22T10:53:30.853Z,19.20
2022-10-22T10:56:36.791Z,19.40
2022-10-22T10:59:41.044Z,19.50
2022-10-22T11:02:49.438Z,19.50
2022-10-22T11:05:42.985Z,19.60
2022-10-22T11:08:36.943Z,19.80
2022-10-22T11:11:32.811Z,19.90
2022-10-22T11:14:27.814Z,20.00
2022-10-22T11:17:19.544Z,20.10
2022-10-22T11:20:18.032Z,20.40
2022-10-22T11:23:19.449Z,20.60
2022-10-22T11:26:14.992Z,20.70
2022-10-22T11:29:08.275Z,20.70
2022-10-22T11:31:57.809Z,20.80
2022-10-22T11:34:49.513Z,20.80
2022-10-22T11:37:39.219Z,20.80
2022-10-22T11:40:36.220Z,20.80
2022-10-22T11:43:31.702Z,20.80
2022-10-22T11:46:47.676Z,20.90
2022-10-22T11:49:45.758Z,20.90
2022-10-22T11:52:47.104Z,21.00
2022-10-22T11:55:46.042Z,21.10
2022-10-22T11:58:42.283Z,21.10
2022-10-22T12:01:41.688Z,21.20
2022-10-22T12:04:42.339Z,21.20
2022-10-22T12:07:32.835Z,21.20
2022-10-22T12:10:23.105Z,21.20
2022-10-22T12:13:20.965Z,21.20
2022-10-22T12:16:14.865Z,21.30
2022-10-22T12:19:13.188Z,21.30
2022-10-22T12:22:12.961Z,21.30
2022-10-22T12:25:14.869Z,21.30
2022-10-22T12:28:03.312Z,21.40
2022-10-22T12:30:51.600Z,21.50
2022-10-22T12:33:41.389Z,21.60
2022-10-22T12:36:31.842Z,21.70
2022-10-22T12:39:22.118Z,21.70
2022-10-22T12:42:15.386Z,21.60
2022-10-22T12:45:03.756Z,21.70
2022-10-22T12:47:57.164Z,21.80
2022-10-22T12:50:50.310Z,21.80
2022-10-22T12:53:40.626Z,21.80
2022-10-22T12:56:31.169Z,21.90
2022-10-22T12:59:23.302Z,22.00
2022-10-22T13:02:18.561Z,22.00
2022-10-22T13:05:22.221Z,22.10
2022-10-22T13:08:13.312Z,22.10
2022-10-22T13:11:08.843Z,22.20
2022-10-22T13:14:06.072Z,22.10
2022-10-22T13:17:12.253Z,21.90
2022-10-22T13:20:06.760Z,21.60
2022-10-22T13:23:00.109Z,21.60
2022-10-22T13:26:00.604Z,21.60
2022-10-22T13:28:53.492Z,21.70
2022-10-22T13:31:47.281Z,21.70
2022-10-22T13:34:36.393Z,21.80
2022-10-22T13:37:25.213Z,21.70
2022-10-22T13:40:14.484Z,21.40
2022-10-22T13:43:04.193Z,21.20
2022-10-22T13:45:56.524Z,21.10
2022-10-22T13:48:45.838Z,21.00
2022-10-22T13:51:36.226Z,21.00
2022-10-22T13:54:25.906Z,20.90
2022-10-22T13:57:14.198Z,20.80
2022-10-22T14:00:03.995Z,20.70
2022-10-22T14:02:56.248Z,20.60
2022-10-22T14:05:46.614Z,20.50
2022-10-22T14:08:35.007Z,20.40
2022-10-22T14:11:23.339Z,20.20
2022-10-22T14:14:14.271Z,20.10
2022-10-22T14:17:04.097Z,20.00
2022-10-22T14:19:52.330Z,20.00
2022-10-22T14:22:40.581Z,19.90
2022-10-22T14:25:31.392Z,19.90
2022-10-22T14:28:19.933Z,19.90
2022-10-22T14:31:10.411Z,19.80
2022-10-22T14:34:00.037Z,19.80
2022-10-22T14:36:48.429Z,19.80
2022-10-22T14:39:36.675Z,19.70
2022-10-22T14:42:26.467Z,19.60
2022-10-22T14:45:18.693Z,19.50
2022-10-22T14:48:08.297Z,19.50
2022-10-22T14:50:58.021Z,19.40
2022-10-22T14:53:47.023Z,19.40
2022-10-22T14:59:28.716Z,19.30
2022-10-22T15:02:17.144Z,19.30
2022-10-22T15:05:08.736Z,19.20
2022-10-22T15:07:59.136Z,19.20
2022-10-22T15:10:47.347Z,19.20
2022-10-22T15:13:36.099Z,19.10
2022-10-22T15:16:24.424Z,19.10
2022-10-22T15:19:12.803Z,19.10
2022-10-22T15:22:04.257Z,19.10
2022-10-22T15:24:53.971Z,19.00
2022-10-22T15:27:42.349Z,19.00
2022-10-22T15:30:30.684Z,19.00
2022-10-22T15:33:19.011Z,19.00
2022-10-22T15:36:14.961Z,19.00
2022-10-22T15:39:08.226Z,18.90
2022-10-22T15:41:58.655Z,18.90
2022-10-22T15:44:47.006Z,18.80
2022-10-22T15:47:35.308Z,18.80
2022-10-22T15:50:23.610Z,18.80
2022-10-22T15:53:15.701Z,18.70
2022-10-22T15:56:04.209Z,18.60
2022-10-22T15:58:57.549Z,18.50
2022-10-22T16:01:45.926Z,18.40
2022-10-22T16:04:34.405Z,18.30
2022-10-22T16:07:24.758Z,18.20
2022-10-22T16:10:14.085Z,18.10
2022-10-22T16:13:05.002Z,18.10
2022-10-22T16:15:55.139Z,18.00
2022-10-22T16:18:43.454Z,17.90
2022-10-22T16:21:31.944Z,17.70
2022-10-22T16:24:20.992Z,17.70
2022-10-22T16:27:09.686Z,17.60
2022-10-22T16:29:57.977Z,17.60
2022-10-22T16:32:47.615Z,17.50
2022-10-22T16:35:36.396Z,17.40
2022-10-22T16:38:24.680Z,17.30
2022-10-22T16:41:14.439Z,17.20
2022-10-22T16:44:04.836Z,17.10
2022-10-22T16:46:53.138Z,16.90
2022-10-22T16:49:42.863Z,16.90
2022-10-22T16:52:31.128Z,16.90
2022-10-22T16:55:19.538Z,16.80
2022-10-22T16:58:08.035Z,16.70
2022-10-22T17:00:56.351Z,16.70
2022-10-22T17:03:44.855Z,16.70
2022-10-22T17:06:34.558Z,16.50
2022-10-22T17:09:24.205Z,16.30
2022-10-22T17:12:12.516Z,16.20
2022-10-22T17:15:00.773Z,16.00
2022-10-22T17:17:53.637Z,15.80
2022-10-22T17:20:42.819Z,15.70
2022-10-22T17:23:32.588Z,15.60
2022-10-22T17:26:22.850Z,15.60
2022-10-22T17:29:11.266Z,15.60
2022-10-22T17:31:59.826Z,15.60
2022-10-22T17:34:48.140Z,15.60
2022-10-22T17:37:37.013Z,15.60
2022-10-22T17:40:27.063Z,15.60
2022-10-22T17:43:15.358Z,15.60
2022-10-22T17:46:08.027Z,15.60
2022-10-22T17:48:58.244Z,15.70
2022-10-22T17:51:46.793Z,15.70
2022-10-22T17:54:35.084Z,15.70
2022-10-22T17:57:24.724Z,15.70
2022-10-22T18:00:16.205Z,15.80
2022-10-22T18:03:04.563Z,15.80
2022-10-22T18:05:52.896Z,15.70
2022-10-22T18:08:41.546Z,15.70
2022-10-22T18:11:31.597Z,15.60
2022-10-22T18:14:23.211Z,15.50
2022-10-22T18:17:11.558Z,15.50
2022-10-22T18:19:59.943Z,15.50
2022-10-22T18:22:48.224Z,15.40
2022-10-22T18:25:39.965Z,15.40
2022-10-22T18:28:28.215Z,15.40
2022-10-22T18:31:20.821Z,15.40
2022-10-22T18:34:09.104Z,15.40
2022-10-22T18:36:57.358Z,15.50
2022-10-22T18:39:45.589Z,15.40
2022-10-22T18:42:38.994Z,15.40
2022-10-22T18:45:28.114Z,15.30
2022-10-22T18:48:19.875Z,15.30
2022-10-22T18:51:09.696Z,15.40
2022-10-22T18:54:05.217Z,15.40
2022-10-22T18:57:02.886Z,15.50
2022-10-22T18:59:54.610Z,15.40
2022-10-22T19:02:45.447Z,15.40
2022-10-22T19:05:35.637Z,15.40
2022-10-22T19:08:23.951Z,15.40
2022-10-22T19:11:13.818Z,15.30
2022-10-22T19:14:02.533Z,15.40
2022-10-22T19:16:51.127Z,15.30
2022-10-22T19:19:39.448Z,15.30
2022-10-22T19:22:29.224Z,15.30
2022-10-22T19:25:17.663Z,15.30
2022-10-22T19:28:06.311Z,15.30
2022-10-22T19:30:54.637Z,15.30
2022-10-22T19:33:42.866Z,15.30
2022-10-22T19:36:32.678Z,15.30
2022-10-22T19:39:22.399Z,15.40
2022-10-22T19:42:10.653Z,15.40
2022-10-22T19:44:58.874Z,15.40
2022-10-22T19:47:47.198Z,15.30
2022-10-22T19:50:35.940Z,15.30
2022-10-22T19:53:24.247Z,15.30
2022-10-22T19:56:13.930Z,15.40
2022-10-22T19:59:02.324Z,15.40
2022-10-22T20:01:50.930Z,15.40
2022-10-22T20:04:39.194Z,15.40
2022-10-22T20:07:29.046Z,15.40
2022-10-22T20:10:17.515Z,15.40
2022-10-22T20:15:40.109Z,15.30
2022-10-22T20:18:28.443Z,15.30
2022-10-22T20:21:19.953Z,15.30
2022-10-22T20:24:08.599Z,15.30
2022-10-22T20:26:56.971Z,15.20
2022-10-22T20:29:45.305Z,15.20
2022-10-22T20:32:38.655Z,15.20
2022-10-22T20:35:26.939Z,15.20
2022-10-22T20:38:16.461Z,15.20
2022-10-22T20:41:06.803Z,15.10
2022-10-22T20:43:55.144Z,15.10
2022-10-22T20:46:44.271Z,15.10
2022-10-22T20:49:33.950Z,15.10
2022-10-22T20:52:22.267Z,15.10
2022-10-22T20:55:10.700Z,15.10
2022-10-22T20:57:59.067Z,15.10
2022-10-22T21:00:48.048Z,15.00
2022-10-22T21:03:37.090Z,15.00
2022-10-22T21:06:26.909Z,14.90
2022-10-22T21:09:16.368Z,14.80
2022-10-22T21:12:05.958Z,14.80
2022-10-22T21:14:54.426Z,14.70
2022-10-22T21:17:42.714Z,14.70
2022-10-22T21:20:30.972Z,14.70
2022-10-22T21:23:20.680Z,14.60
2022-10-22T21:26:09.260Z,14.60
2022-10-22T21:28:57.654Z,14.50
2022-10-22T21:31:45.941Z,14.50
2022-10-22T21:34:38.148Z,14.50
2022-10-22T21:37:30.006Z,14.50
2022-10-22T21:40:19.614Z,14.40
2022-10-22T21:43:07.909Z,14.40
2022-10-22T21:46:07.791Z,14.30
2022-10-22T21:48:58.034Z,14.20
2022-10-22T21:51:46.313Z,14.20
2022-10-22T21:54:35.780Z,14.10
2022-10-22T21:57:25.422Z,14.10
2022-10-22T22:00:15.004Z,14.10
2022-10-22T22:03:03.289Z,14.00
2022-10-22T22:05:52.327Z,13.90
2022-10-22T22:08:41.230Z,13.90
2022-10-22T22:11:30.851Z,13.80
2022-10-22T22:14:20.506Z,13.70
2022-10-22T22:17:10.528Z,13.70
2022-10-22T22:19:58.761Z,13.70
2022-10-22T22:22:47.053Z,13.70
2022-10-22T22:25:35.353Z,13.70
2022-10-22T22:28:24.005Z,13.60
2022-10-22T22:31:18.677Z,13.60
2022-10-22T22:34:09.448Z,13.60
2022-10-22T22:36:57.759Z,13.60
2022-10-22T22:39:46.007Z,13.60
2022-10-22T22:42:34.348Z,13.50
2022-10-22T22:45:22.633Z,13.50
2022-10-22T22:48:12.279Z,13.50
2022-10-22T22:51:00.962Z,13.50
2022-10-22T22:53:49.260Z,13.40
2022-10-22T22:56:37.568Z,13.40
2022-10-22T22:59:25.872Z,13.50
2022-10-22T23:02:14.094Z,13.50
2022-10-22T23:05:03.703Z,13.40
2022-10-22T23:07:51.938Z,13.40
2022-10-22T23:10:40.235Z,13.40
2022-10-22T23:13:28.824Z,13.40
2022-10-22T23:16:18.970Z,13.30
2022-10-22T23:19:08.146Z,13.30
2022-10-22T23:21:57.985Z,13.20
2022-10-22T23:24:46.370Z,13.10
2022-10-22T23:27:34.708Z,13.00
2022-10-22T23:30:23.030Z,12.90
2022-10-22T23:33:11.581Z,13.00
2022-10-22T23:36:01.996Z,13.00
2022-10-22T23:38:51.641Z,12.90
2022-10-22T23:41:40.512Z,12.90
2022-10-22T23:44:28.825Z,12.80
2022-10-22T23:47:17.094Z,12.70
2022-10-22T23:50:05.727Z,12.70
2022-10-22T23:52:54.031Z,12.80
2022-10-22T23:55:45.135Z,12.80
2022-10-22T23:58:33.944Z,12.80
